Time;durP1;ratioP1;P1;durP2;ratioP2;P2;SDS_P1;SDS_P2;PMS_P1;PMS_P2;Temp;Humidity;BMP_temperature;BMP_pressure;BME280_temperature;BME280_humidity;BME280_pressure;Samples;Min_cycle;Max_cycle;Signal;HPM_P1;HPM_P2
2021/06/27 00:00:43;;;;;;;17.57;15.93;;;18.10;99.90;;;;;;5032297;28;20433;-65
2021/06/27 00:03:12;;;;;;;19.70;17.80;;;18.00;99.90;;;;;;5032292;28;20421;-65
2021/06/27 00:05:39;;;;;;;18.20;16.70;;;18.10;99.90;;;;;;5032371;28;20417;-65
2021/06/27 00:08:06;;;;;;;16.43;15.03;;;18.00;99.90;;;;;;5030890;28;20455;-65
2021/06/27 00:10:36;;;;;;;19.63;17.83;;;18.10;99.90;;;;;;5031978;28;20458;-65
2021/06/27 00:13:03;;;;;;;18.30;16.40;;;18.20;99.90;;;;;;5032131;28;20413;-65
2021/06/27 00:15:51;;;;;;;17.80;16.17;;;18.20;99.90;;;;;;5032249;28;20475;-65
2021/06/27 00:18:20;;;;;;;16.50;15.10;;;18.10;99.90;;;;;;5031679;28;20547;-65
2021/06/27 00:20:47;;;;;;;16.10;14.67;;;18.00;99.90;;;;;;5032062;28;20459;-65
2021/06/27 00:23:15;;;;;;;15.80;13.87;;;18.00;99.90;;;;;;5031976;28;20421;-65
2021/06/27 00:25:41;;;;;;;17.80;16.20;;;18.00;99.90;;;;;;5030719;28;20508;-65
2021/06/27 00:28:08;;;;;;;17.50;16.00;;;17.90;99.90;;;;;;5031970;28;20444;-65
2021/06/27 00:30:35;;;;;;;16.27;14.87;;;17.80;99.90;;;;;;5031726;28;20460;-65
2021/06/27 00:33:02;;;;;;;16.80;15.30;;;18.00;99.90;;;;;;5031995;28;20413;-65
2021/06/27 00:35:28;;;;;;;15.77;14.47;;;18.00;99.90;;;;;;5031921;28;20444;-65
2021/06/27 00:37:54;;;;;;;14.90;13.50;;;17.90;99.90;;;;;;5031787;28;20495;-65
2021/06/27 00:40:24;;;;;;;14.80;13.60;;;17.80;99.90;;;;;;5031625;28;20759;-65
2021/06/27 00:42:50;;;;;;;14.33;13.03;;;17.80;99.90;;;;;;5031789;28;20432;-65
2021/06/27 00:45:17;;;;;;;15.30;13.80;;;17.90;99.90;;;;;;5031978;28;20416;-65
2021/06/27 00:47:44;;;;;;;12.53;11.50;;;17.90;99.90;;;;;;5031625;28;20610;-66
2021/06/27 00:50:14;;;;;;;12.10;11.10;;;17.90;99.90;;;;;;5031435;28;20494;-65
2021/06/27 00:52:40;;;;;;;13.97;12.70;;;17.70;99.90;;;;;;5031692;28;20409;-65
2021/06/27 00:55:07;;;;;;;13.73;12.43;;;17.70;99.90;;;;;;5031809;28;20416;-65
2021/06/27 00:57:32;;;;;;;14.13;12.80;;;17.60;99.90;;;;;;5031177;28;20209;-65
2021/06/27 01:00:02;;;;;;;13.73;12.33;;;17.70;99.90;;;;;;5031320;28;20909;-65
2021/06/27 01:02:28;;;;;;;14.17;12.97;;;17.70;99.90;;;;;;5031715;28;20201;-65
2021/06/27 01:04:54;;;;;;;14.47;13.27;;;17.70;99.90;;;;;;5031701;28;20497;-65
2021/06/27 01:07:19;;;;;;;13.93;12.67;;;17.60;99.90;;;;;;5031700;28;20505;-65
2021/06/27 01:09:44;;;;;;;12.83;11.70;;;17.70;99.90;;;;;;5031385;28;20276;-65
2021/06/27 01:12:10;;;;;;;14.17;12.80;;;17.60;99.90;;;;;;5031564;28;20253;-65
2021/06/27 01:14:36;;;;;;;13.90;12.80;;;17.70;99.90;;;;;;5031487;28;20189;-65
2021/06/27 01:17:01;;;;;;;15.20;13.90;;;17.60;99.90;;;;;;5031691;28;20683;-65
2021/06/27 01:19:32;;;;;;;14.03;12.93;;;17.50;99.90;;;;;;5031294;28;20602;-65
2021/06/27 01:21:59;;;;;;;14.93;13.53;;;17.60;99.90;;;;;;5031540;28;20589;-65
2021/06/27 01:24:24;;;;;;;15.07;13.63;;;17.50;99.90;;;;;;5031499;28;20786;-65
2021/06/27 01:26:50;;;;;;;15.67;13.97;;;17.40;99.90;;;;;;5031484;28;20421;-65
2021/06/27 01:29:19;;;;;;;15.30;13.70;;;17.50;99.90;;;;;;5030978;28;20194;-65
2021/06/27 01:31:45;;;;;;;15.03;13.57;;;17.50;99.90;;;;;;5031499;28;20167;-65
2021/06/27 01:34:13;;;;;;;14.27;12.57;;;17.60;99.90;;;;;;5031366;28;20428;-65
2021/06/27 01:36:38;;;;;;;15.30;13.83;;;17.50;99.90;;;;;;5031324;28;20782;-65
2021/06/27 01:39:05;;;;;;;16.50;15.00;;;17.40;99.90;;;;;;5031094;28;20433;-65
2021/06/27 01:41:30;;;;;;;15.20;13.80;;;17.40;99.90;;;;;;5031341;28;20220;-65
2021/06/27 01:43:56;;;;;;;14.83;13.33;;;17.50;99.90;;;;;;5031234;28;20424;-65
2021/06/27 01:46:21;;;;;;;14.70;13.60;;;17.50;99.90;;;;;;5031392;28;20208;-65
2021/06/27 01:48:47;;;;;;;16.57;13.80;;;17.30;99.90;;;;;;5033756;28;20626;-65
2021/06/27 01:51:13;;;;;;;14.20;13.00;;;17.30;99.90;;;;;;5034841;28;20631;-65
2021/06/27 01:53:40;;;;;;;15.30;13.80;;;17.40;99.90;;;;;;5034890;28;20557;-65
2021/06/27 01:56:07;;;;;;;14.90;13.43;;;17.30;99.90;;;;;;5033437;28;20186;-65
2021/06/27 01:58:41;;;;;;;13.50;12.40;;;17.20;99.90;;;;;;5034441;28;20436;-65
2021/06/27 02:01:13;;;;;;;14.47;13.23;;;17.20;99.90;;;;;;5034673;28;20435;-65
2021/06/27 02:03:39;;;;;;;14.67;13.47;;;17.20;99.90;;;;;;5034662;28;20428;-65
2021/06/27 02:06:05;;;;;;;14.00;12.80;;;17.30;99.90;;;;;;5034549;28;20512;-65
2021/06/27 02:08:35;;;;;;;13.00;11.90;;;17.30;99.90;;;;;;5034162;28;20186;-65
2021/06/27 02:11:03;;;;;;;13.73;12.23;;;17.30;99.90;;;;;;5034482;28;20467;-65
2021/06/27 02:13:29;;;;;;;15.40;14.00;;;17.20;99.90;;;;;;5034666;28;20416;-65
2021/06/27 02:15:55;;;;;;;15.03;13.83;;;17.20;99.90;;;;;;5034402;28;20413;-65
2021/06/27 02:18:33;;;;;;;15.10;13.70;;;17.20;99.90;;;;;;5034126;28;20486;-65
2021/06/27 02:21:20;;;;;;;15.13;13.67;;;17.20;99.90;;;;;;5034155;28;20170;-65
2021/06/27 02:23:47;;;;;;;13.67;12.50;;;17.10;99.90;;;;;;5034535;28;20428;-65
2021/06/27 02:26:13;;;;;;;13.27;12.13;;;17.10;99.90;;;;;;5034160;28;20417;-65
2021/06/27 02:28:40;;;;;;;14.40;13.10;;;17.20;99.90;;;;;;5033877;28;20862;-65
2021/06/27 02:31:05;;;;;;;13.50;12.40;;;17.30;99.90;;;;;;5034019;28;20464;-65
2021/06/27 02:33:32;;;;;;;13.97;12.80;;;17.10;99.90;;;;;;5034043;28;20415;-65
2021/06/27 02:35:58;;;;;;;14.40;13.20;;;17.10;99.90;;;;;;5033944;28;20170;-65
2021/06/27 02:38:24;;;;;;;14.73;13.43;;;17.00;99.90;;;;;;5033686;28;20487;-65
2021/06/27 02:40:51;;;;;;;13.43;12.40;;;17.00;99.90;;;;;;5033864;28;20185;-65
2021/06/27 02:43:18;;;;;;;14.40;13.10;;;17.10;99.90;;;;;;5033829;28;20487;-65
2021/06/27 02:45:44;;;;;;;14.63;13.23;;;17.10;99.90;;;;;;5033823;28;20781;-65
2021/06/27 02:48:10;;;;;;;13.83;12.60;;;17.10;99.90;;;;;;5033481;28;20460;-65
2021/06/27 02:50:38;;;;;;;13.23;12.13;;;17.10;99.90;;;;;;5033362;28;20457;-65
2021/06/27 02:53:04;;;;;;;13.63;12.43;;;17.00;99.90;;;;;;5033789;28;20167;-65
2021/06/27 02:55:29;;;;;;;14.23;12.93;;;16.90;99.90;;;;;;5033655;28;20417;-65
2021/06/27 02:57:55;;;;;;;14.80;13.47;;;16.80;99.90;;;;;;5033561;28;20949;-65
2021/06/27 03:00:21;;;;;;;13.70;12.70;;;16.80;99.90;;;;;;5032230;28;20203;-65
2021/06/27 03:02:47;;;;;;;14.37;12.90;;;16.90;99.90;;;;;;5033378;28;20170;-65
2021/06/27 03:05:14;;;;;;;12.70;11.43;;;17.00;99.90;;;;;;5033473;28;20424;-65
2021/06/27 03:07:41;;;;;;;12.73;11.70;;;17.10;99.90;;;;;;5033285;28;20198;-65
2021/06/27 03:10:11;;;;;;;13.13;12.00;;;17.00;99.90;;;;;;5033038;28;20486;-65
2021/06/27 03:12:38;;;;;;;13.43;12.20;;;16.90;99.90;;;;;;5033231;28;20908;-65
2021/06/27 03:15:05;;;;;;;13.60;12.47;;;16.90;99.90;;;;;;5033291;28;20417;-65
2021/06/27 03:17:31;;;;;;;12.93;11.73;;;17.00;99.90;;;;;;5033030;28;20433;-65
2021/06/27 03:19:56;;;;;;;12.40;11.47;;;17.00;99.90;;;;;;5032883;28;20828;-65
2021/06/27 03:22:22;;;;;;;13.20;12.10;;;17.00;99.90;;;;;;5033159;28;20179;-65
2021/06/27 03:24:48;;;;;;;14.23;13.03;;;17.00;99.90;;;;;;5033187;28;20170;-65
2021/06/27 03:27:13;;;;;;;11.70;10.70;;;17.10;99.90;;;;;;5032953;28;20548;-65
2021/06/27 03:29:39;;;;;;;12.13;11.13;;;17.20;99.90;;;;;;5032683;28;20268;-65
2021/06/27 03:32:05;;;;;;;11.97;10.87;;;17.10;99.90;;;;;;5032856;28;20182;-66
2021/06/27 03:34:30;;;;;;;12.67;11.57;;;17.00;99.90;;;;;;5032990;28;20166;-66
2021/06/27 03:36:56;;;;;;;13.43;12.33;;;17.00;99.90;;;;;;5032864;28;20420;-65
2021/06/27 03:39:23;;;;;;;12.80;11.70;;;17.10;99.90;;;;;;5032488;28;20190;-65
2021/06/27 03:41:54;;;;;;;12.03;10.90;;;17.20;99.90;;;;;;5032733;28;20224;-65
2021/06/27 03:44:25;;;;;;;13.03;11.73;;;17.20;99.90;;;;;;5032674;28;20421;-64
2021/06/27 03:46:52;;;;;;;13.00;11.80;;;17.10;99.90;;;;;;5032778;28;20906;-65
2021/06/27 03:49:17;;;;;;;11.77;10.77;;;17.10;99.90;;;;;;5032690;28;20456;-65
2021/06/27 03:51:43;;;;;;;11.97;10.87;;;17.20;99.90;;;;;;5032593;28;20427;-65
2021/06/27 03:54:09;;;;;;;11.57;10.70;;;17.30;99.90;;;;;;5032575;28;20185;-65
2021/06/27 03:56:35;;;;;;;12.60;11.00;;;17.30;99.90;;;;;;5032512;28;20173;-65
2021/06/27 03:59:00;;;;;;;12.33;11.33;;;17.40;99.90;;;;;;5032025;28;20190;-65
2021/06/27 04:01:26;;;;;;;12.50;11.40;;;17.40;99.90;;;;;;5032718;28;20504;-65
2021/06/27 04:03:52;;;;;;;11.60;10.60;;;17.40;99.90;;;;;;5032274;28;20178;-65
2021/06/27 04:06:17;;;;;;;12.20;11.20;;;17.60;99.90;;;;;;5032380;28;20166;-65
2021/06/27 04:08:43;;;;;;;12.87;11.63;;;17.60;99.90;;;;;;5032117;28;20598;-65
2021/06/27 04:11:08;;;;;;;12.30;11.30;;;17.70;99.90;;;;;;5031929;28;20209;-65
2021/06/27 04:13:35;;;;;;;11.13;10.23;;;17.80;99.90;;;;;;5032115;28;20265;-65
2021/06/27 04:16:02;;;;;;;12.23;11.23;;;17.90;99.90;;;;;;5032292;28;20707;-65
2021/06/27 04:18:28;;;;;;;11.57;10.57;;;18.00;99.90;;;;;;5031934;28;20436;-65
2021/06/27 04:20:54;;;;;;;10.83;9.83;;;18.00;99.90;;;;;;5032183;28;20863;-65
2021/06/27 04:23:20;;;;;;;11.07;10.10;;;18.10;99.90;;;;;;5032435;28;20265;-65
2021/06/27 04:25:46;;;;;;;10.67;9.87;;;18.20;99.90;;;;;;5032220;28;20504;-65
2021/06/27 04:28:12;;;;;;;11.67;10.70;;;18.20;99.90;;;;;;5031596;28;20469;-65
2021/06/27 04:30:39;;;;;;;11.10;10.20;;;18.30;99.90;;;;;;5032079;28;20190;-65
2021/06/27 04:33:06;;;;;;;13.20;12.10;;;18.30;99.90;;;;;;5031913;28;20417;-65
2021/06/27 04:35:34;;;;;;;11.73;10.73;;;18.40;99.90;;;;;;5032297;28;20409;-65
2021/06/27 04:38:01;;;;;;;12.13;11.00;;;18.30;99.90;;;;;;5031829;28;20440;-65
2021/06/27 04:40:26;;;;;;;11.20;10.30;;;18.40;99.90;;;;;;5031646;28;20497;-65
2021/06/27 04:42:52;;;;;;;10.00;9.10;;;18.40;99.90;;;;;;5031635;28;20420;-65
2021/06/27 04:45:17;;;;;;;10.67;9.87;;;18.60;99.90;;;;;;5031943;28;20176;-65
2021/06/27 04:47:43;;;;;;;11.47;10.27;;;18.60;99.90;;;;;;5031534;28;20218;-65
2021/06/27 04:50:09;;;;;;;9.37;8.63;;;18.70;99.90;;;;;;5031653;28;20193;-65
2021/06/27 04:52:35;;;;;;;10.50;9.70;;;18.70;99.90;;;;;;5031859;28;20598;-65
2021/06/27 04:55:02;;;;;;;10.90;10.10;;;18.80;99.90;;;;;;5031864;28;20500;-65
2021/06/27 04:57:28;;;;;;;12.10;11.20;;;18.80;99.90;;;;;;5030366;28;20248;-65
2021/06/27 04:59:53;;;;;;;13.37;12.27;;;18.80;99.90;;;;;;5031446;28;20421;-65
2021/06/27 05:02:19;;;;;;;11.10;10.03;;;18.70;99.90;;;;;;5031139;28;20522;-65
2021/06/27 05:04:44;;;;;;;12.90;11.80;;;18.80;99.90;;;;;;5031988;28;20198;-65
2021/06/27 05:07:10;;;;;;;11.87;10.97;;;18.90;99.90;;;;;;5031660;28;20182;-65
2021/06/27 05:09:35;;;;;;;12.50;11.30;;;18.90;99.90;;;;;;5031785;28;20206;-65
2021/06/27 05:12:01;;;;;;;11.57;10.63;;;19.00;99.90;;;;;;5030218;28;20731;-65
2021/06/27 05:14:26;;;;;;;12.80;11.80;;;19.20;99.90;;;;;;5031617;28;20166;-65
2021/06/27 05:16:52;;;;;;;12.97;11.90;;;19.30;99.90;;;;;;5031689;28;20178;-65
2021/06/27 05:19:18;;;;;;;10.93;9.93;;;19.40;99.90;;;;;;5031222;28;20197;-65
2021/06/27 05:21:44;;;;;;;12.13;11.13;;;19.40;99.90;;;;;;5031611;28;21032;-65
2021/06/27 05:24:09;;;;;;;13.27;12.07;;;19.40;99.90;;;;;;5035303;28;20163;-65
2021/06/27 05:26:35;;;;;;;11.83;10.93;;;19.50;99.90;;;;;;5035251;28;20233;-65
2021/06/27 05:29:01;;;;;;;10.80;9.70;;;19.60;99.90;;;;;;5035201;28;20552;-65
2021/06/27 05:31:27;;;;;;;12.97;11.40;;;19.70;99.90;;;;;;5035419;28;20518;-65
2021/06/27 05:33:52;;;;;;;11.70;10.80;;;19.70;99.90;;;;;;5035187;28;20170;-65
2021/06/27 05:36:18;;;;;;;10.93;10.13;;;19.80;99.90;;;;;;5035226;28;20556;-65
2021/06/27 05:38:43;;;;;;;10.70;9.70;;;19.90;99.90;;;;;;5034862;28;20251;-65
2021/06/27 05:41:09;;;;;;;11.10;9.40;;;20.00;99.90;;;;;;5034671;28;20186;-65
2021/06/27 05:43:34;;;;;;;10.70;9.90;;;20.10;99.90;;;;;;5050382;28;20714;-65
2021/06/27 05:46:02;;;;;;;10.60;9.70;;;20.20;99.90;;;;;;5034983;28;20196;-65
2021/06/27 05:48:27;;;;;;;11.17;10.27;;;20.10;99.90;;;;;;5034822;28;20255;-65
2021/06/27 05:50:53;;;;;;;10.30;9.40;;;20.20;99.90;;;;;;5034782;28;20468;-65
2021/06/27 05:53:18;;;;;;;10.23;9.43;;;20.40;99.90;;;;;;5034967;28;20605;-65
2021/06/27 05:55:44;;;;;;;9.53;8.63;;;20.40;99.90;;;;;;5035267;28;20650;-65
2021/06/27 05:58:09;;;;;;;10.10;9.30;;;20.40;99.90;;;;;;5034721;28;20737;-65
2021/06/27 06:00:35;;;;;;;9.03;8.23;;;20.30;99.90;;;;;;5034524;28;20206;-65
2021/06/27 06:03:01;;;;;;;10.63;9.73;;;20.30;99.90;;;;;;5034727;28;20265;-65
2021/06/27 06:05:26;;;;;;;9.97;9.17;;;20.30;99.90;;;;;;5034608;28;20518;-65
2021/06/27 06:07:53;;;;;;;9.17;8.47;;;20.20;99.90;;;;;;5034558;28;20198;-65
2021/06/27 06:10:19;;;;;;;10.67;9.87;;;20.30;99.90;;;;;;5033752;28;20201;-66
2021/06/27 06:12:44;;;;;;;10.80;9.90;;;20.20;99.90;;;;;;5034580;28;20413;-66
2021/06/27 06:15:11;;;;;;;10.30;9.60;;;20.10;99.90;;;;;;5034408;28;20709;-65
2021/06/27 06:17:36;;;;;;;9.27;8.50;;;20.10;99.90;;;;;;5034102;28;20285;-66
2021/06/27 06:20:03;;;;;;;12.10;9.10;;;20.10;99.90;;;;;;5033652;28;20508;-66
2021/06/27 06:22:28;;;;;;;10.33;9.50;;;20.20;99.90;;;;;;5034138;28;20194;-66
2021/06/27 06:24:54;;;;;;;9.80;9.10;;;20.20;99.90;;;;;;5033864;28;20429;-66
2021/06/27 06:27:19;;;;;;;8.73;8.03;;;20.50;99.90;;;;;;5033756;28;20218;-66
2021/06/27 06:29:45;;;;;;;9.87;9.07;;;20.50;99.90;;;;;;5033425;28;20252;-66
2021/06/27 06:32:10;;;;;;;9.23;8.53;;;20.70;99.90;;;;;;5034061;28;20253;-65
2021/06/27 06:34:36;;;;;;;7.70;7.10;;;20.90;99.90;;;;;;5033908;28;20725;-65
2021/06/27 06:37:02;;;;;;;8.80;8.17;;;21.40;99.90;;;;;;5033936;28;20648;-65
2021/06/27 06:39:27;;;;;;;8.50;7.90;;;21.80;99.90;;;;;;5032873;28;20194;-65
2021/06/27 06:41:53;;;;;;;8.20;7.60;;;22.10;99.90;;;;;;5033845;28;20527;-65
2021/06/27 06:44:18;;;;;;;8.00;7.40;;;22.40;99.90;;;;;;5033837;28;20178;-65
2021/06/27 06:46:44;;;;;;;8.20;7.50;;;22.60;99.90;;;;;;5033810;28;20166;-65
2021/06/27 06:49:09;;;;;;;9.30;8.50;;;22.90;99.90;;;;;;5033118;28;20232;-65
2021/06/27 06:51:35;;;;;;;8.07;7.47;;;22.80;99.90;;;;;;5033319;28;20567;-65
2021/06/27 06:54:01;;;;;;;8.53;7.73;;;22.90;99.90;;;;;;5033108;28;20178;-65
2021/06/27 06:56:26;;;;;;;8.00;7.40;;;22.90;99.90;;;;;;5033482;28;20635;-65
2021/06/27 06:58:52;;;;;;;8.00;7.40;;;22.80;99.90;;;;;;5032958;28;20198;-65
2021/06/27 07:01:18;;;;;;;8.53;7.73;;;22.60;99.90;;;;;;5032967;28;20178;-66
2021/06/27 07:03:44;;;;;;;8.27;7.50;;;22.60;99.90;;;;;;5033542;28;20178;-65
2021/06/27 07:06:09;;;;;;;8.83;6.63;;;22.60;99.90;;;;;;5033419;28;20178;-66
2021/06/27 07:08:35;;;;;;;7.57;6.83;;;22.50;99.90;;;;;;5033085;28;20439;-64
2021/06/27 07:11:01;;;;;;;8.03;7.33;;;22.70;99.90;;;;;;5032943;28;20662;-64
2021/06/27 07:13:27;;;;;;;7.03;6.53;;;23.10;99.90;;;;;;5032873;28;20255;-64
2021/06/27 07:15:53;;;;;;;6.20;5.70;;;23.60;99.90;;;;;;5033453;28;20166;-64
2021/06/27 07:18:19;;;;;;;6.67;6.27;;;23.90;99.90;;;;;;5033046;28;20474;-64
2021/06/27 07:20:44;;;;;;;7.03;6.50;;;24.10;99.90;;;;;;5033209;28;20202;-67
2021/06/27 07:23:10;;;;;;;6.50;6.10;;;24.50;99.90;;;;;;5033164;28;20850;-65
2021/06/27 07:25:36;;;;;;;6.67;6.17;;;24.60;99.90;;;;;;5031756;28;20197;-65
2021/06/27 07:28:02;;;;;;;7.73;7.07;;;24.60;99.90;;;;;;5031876;28;20191;-65
2021/06/27 07:30:27;;;;;;;6.40;6.00;;;24.50;99.90;;;;;;5032764;28;20198;-65
2021/06/27 07:32:53;;;;;;;7.80;6.97;;;24.80;99.90;;;;;;5033008;28;20416;-65
2021/06/27 07:35:18;;;;;;;6.80;6.30;;;25.20;99.90;;;;;;5033043;28;20534;-65
2021/06/27 07:37:44;;;;;;;7.03;6.43;;;25.50;99.90;;;;;;5026950;28;20198;-65
2021/06/27 07:40:11;;;;;;;7.03;6.57;;;25.70;99.90;;;;;;5028899;28;20301;-65
2021/06/27 07:42:37;;;;;;;6.13;5.67;;;25.60;99.90;;;;;;5029025;28;20968;-65
2021/06/27 07:45:04;;;;;;;7.60;5.93;;;25.80;99.90;;;;;;5028428;28;20469;-64
2021/06/27 07:47:29;;;;;;;5.50;5.10;;;26.10;99.90;;;;;;5028950;28;20201;-65
2021/06/27 07:49:55;;;;;;;5.80;5.27;;;26.40;99.90;;;;;;5028329;28;20467;-65
2021/06/27 07:52:20;;;;;;;6.07;5.67;;;26.60;99.90;;;;;;5028957;28;20548;-64
2021/06/27 07:54:46;;;;;;;6.20;5.70;;;26.80;99.90;;;;;;5029376;28;20178;-65
2021/06/27 07:57:11;;;;;;;5.67;5.27;;;26.70;99.90;;;;;;5028926;28;20710;-65
2021/06/27 07:59:37;;;;;;;5.93;5.53;;;26.90;99.90;;;;;;5029032;28;20185;-65
2021/06/27 08:02:02;;;;;;;5.93;5.43;;;27.10;99.90;;;;;;5029111;28;20170;-65
2021/06/27 08:04:28;;;;;;;6.10;5.67;;;27.00;99.90;;;;;;5020824;28;20179;-65
2021/06/27 08:06:53;;;;;;;4.97;4.60;;;27.10;99.90;;;;;;5010682;28;20577;-65
2021/06/27 08:09:22;;;;;;;6.23;5.70;;;27.10;99.90;;;;;;5010264;28;20202;-65
2021/06/27 08:11:47;;;;;;;5.20;4.80;;;27.00;99.90;;;;;;5010880;28;20205;-65
2021/06/27 08:14:13;;;;;;;5.80;5.40;;;26.80;99.90;;;;;;5011116;28;20468;-65
2021/06/27 08:16:38;;;;;;;5.57;5.17;;;26.90;99.90;;;;;;5011104;28;20175;-65
2021/06/27 08:19:06;;;;;;;6.40;6.00;;;26.90;99.90;;;;;;5009451;28;20195;-65
2021/06/27 08:21:32;;;;;;;5.87;5.47;;;27.10;99.90;;;;;;5012366;28;20170;-65
2021/06/27 08:23:58;;;;;;;6.00;5.50;;;27.20;99.90;;;;;;5012194;28;20418;-66
2021/06/27 08:26:24;;;;;;;5.70;5.30;;;27.10;99.90;;;;;;5022394;28;20579;-65
2021/06/27 08:28:53;;;;;;;4.93;4.53;;;27.00;99.90;;;;;;5028120;28;20339;-65
2021/06/27 08:31:22;;;;;;;6.10;5.70;;;27.30;99.90;;;;;;5028454;28;20599;-65
2021/06/27 08:33:50;;;;;;;4.97;4.67;;;27.50;99.90;;;;;;5010730;28;20422;-65
2021/06/27 08:36:15;;;;;;;5.40;4.93;;;27.80;99.90;;;;;;5010339;28;20479;-66
2021/06/27 08:38:41;;;;;;;5.77;5.37;;;28.10;99.90;;;;;;5011196;28;20441;-65
2021/06/27 08:41:06;;;;;;;5.73;5.20;;;28.30;99.90;;;;;;5011436;28;20179;-65
2021/06/27 08:43:34;;;;;;;5.70;5.10;;;28.50;99.80;;;;;;5018639;28;20178;-66
2021/06/27 08:46:07;;;;;;;6.10;5.60;;;28.80;99.70;;;;;;5031260;28;20170;-66
2021/06/27 08:48:37;;;;;;;6.27;5.83;;;28.90;99.20;;;;;;5031176;28;20472;-65
2021/06/27 08:51:04;;;;;;;5.33;4.90;;;28.90;98.90;;;;;;5031766;28;20556;-65
2021/06/27 08:53:34;;;;;;;4.80;4.50;;;28.40;98.00;;;;;;5031917;28;20421;-65
2021/06/27 08:56:07;;;;;;;5.50;5.20;;;28.50;98.80;;;;;;5031783;28;20836;-65
2021/06/27 08:58:33;;;;;;;5.70;5.30;;;28.80;98.30;;;;;;5034432;28;20445;-65
2021/06/27 09:01:00;;;;;;;5.17;4.67;;;28.70;99.00;;;;;;5035360;28;20995;-65
2021/06/27 09:03:26;;;;;;;5.60;5.10;;;28.70;98.10;;;;;;5035833;28;20492;-65
2021/06/27 09:05:52;;;;;;;5.20;4.90;;;29.10;97.80;;;;;;5035826;28;20507;-65
2021/06/27 09:08:18;;;;;;;5.10;4.70;;;29.40;96.80;;;;;;5035823;28;20666;-65
2021/06/27 09:10:45;;;;;;;5.13;4.83;;;29.40;96.50;;;;;;5035505;28;20976;-65
2021/06/27 09:13:12;;;;;;;4.90;4.60;;;29.40;95.60;;;;;;5035705;28;20409;-65
2021/06/27 09:15:39;;;;;;;5.20;4.90;;;29.30;95.10;;;;;;5035558;28;20783;-65
2021/06/27 09:18:13;;;;;;;4.90;4.50;;;29.10;95.00;;;;;;5035483;28;20436;-65
2021/06/27 09:20:41;;;;;;;5.37;4.97;;;29.10;96.00;;;;;;5035251;28;20950;-65
2021/06/27 09:23:09;;;;;;;6.13;5.57;;;29.20;95.70;;;;;;5035556;28;20423;-65
2021/06/27 09:25:35;;;;;;;5.43;5.07;;;29.60;95.30;;;;;;5035393;28;20421;-65
2021/06/27 09:28:17;;;;;;;4.83;4.53;;;30.00;95.40;;;;;;5035210;28;20998;-65
2021/06/27 09:30:47;;;;;;;4.80;4.50;;;30.00;93.50;;;;;;5035158;28;20539;-65
2021/06/27 09:33:16;;;;;;;5.53;4.60;;;30.10;93.30;;;;;;5035462;28;20843;-65
2021/06/27 09:36:00;;;;;;;4.80;4.50;;;29.70;93.10;;;;;;5035327;28;20475;-65
2021/06/27 09:38:41;;;;;;;5.60;5.23;;;29.10;93.70;;;;;;5034880;28;20539;-65
2021/06/27 09:41:07;;;;;;;6.00;4.47;;;28.70;94.40;;;;;;5035126;28;20416;-66
2021/06/27 09:43:34;;;;;;;5.13;4.73;;;29.00;94.60;;;;;;5035098;28;20444;-66
2021/06/27 09:46:10;;;;;;;5.17;4.87;;;29.40;93.60;;;;;;5035099;28;20420;-65
2021/06/27 09:48:52;;;;;;;5.40;5.10;;;29.70;93.30;;;;;;5034768;28;20839;-65
2021/06/27 09:51:19;;;;;;;5.20;4.60;;;30.00;92.70;;;;;;5034850;28;20562;-65
2021/06/27 09:53:46;;;;;;;6.10;5.70;;;30.40;93.10;;;;;;5049979;28;20428;-65
2021/06/27 09:56:12;;;;;;;4.77;4.47;;;31.00;92.00;;;;;;5030671;28;20431;-64
2021/06/27 09:58:38;;;;;;;5.90;5.50;;;31.20;91.60;;;;;;5034004;28;20445;-64
2021/06/27 10:01:21;;;;;;;5.50;5.10;;;31.80;90.40;;;;;;5034328;28;20457;-65
2021/06/27 10:03:54;;;;;;;4.47;4.27;;;31.70;89.10;;;;;;5034691;28;20174;-64
2021/06/27 10:06:21;;;;;;;9.60;8.80;;;32.20;87.60;;;;;;5034610;28;20771;-65
2021/06/27 10:08:46;;;;;;;4.80;4.40;;;32.50;87.90;;;;;;5033661;28;20441;-65
2021/06/27 10:11:16;;;;;;;4.33;4.13;;;32.20;83.60;;;;;;5049833;28;20468;-65
2021/06/27 10:13:46;;;;;;;4.10;3.90;;;32.70;81.00;;;;;;5034617;28;20534;-65
2021/06/27 10:16:23;;;;;;;5.10;4.80;;;33.00;78.40;;;;;;5034399;28;20475;-65
2021/06/27 10:18:49;;;;;;;9.47;8.83;;;33.90;76.50;;;;;;5034113;28;20459;-65
2021/06/27 10:21:15;;;;;;;4.60;4.40;;;35.00;74.70;;;;;;5034323;28;20421;-65
2021/06/27 10:23:41;;;;;;;4.90;4.60;;;33.20;72.70;;;;;;5034046;28;20439;-64
2021/06/27 10:26:07;;;;;;;4.77;4.33;;;32.00;73.20;;;;;;5033927;28;20189;-64
2021/06/27 10:28:34;;;;;;;3.80;3.60;;;31.00;75.90;;;;;;5030919;28;20726;-64
2021/06/27 10:31:00;;;;;;;4.67;4.27;;;30.80;76.60;;;;;;5027865;28;20555;-63
2021/06/27 10:33:26;;;;;;;5.40;4.70;;;31.10;77.90;;;;;;5030470;28;20487;-64
2021/06/27 10:35:52;;;;;;;5.30;4.90;;;32.40;75.50;;;;;;5030345;28;20425;-64
2021/06/27 10:38:24;;;;;;;4.70;4.40;;;33.10;72.90;;;;;;5030465;28;20809;-65
2021/06/27 10:40:58;;;;;;;9.53;8.83;;;34.10;70.40;;;;;;5030623;28;20931;-64
2021/06/27 10:43:25;;;;;;;11.40;10.43;;;35.70;66.20;;;;;;5030360;28;20451;-63
2021/06/27 10:45:53;;;;;;;4.20;4.00;;;37.10;62.10;;;;;;5030826;28;20431;-63
2021/06/27 10:48:36;;;;;;;3.50;3.30;;;37.80;59.30;;;;;;5030214;28;20488;-63
2021/06/27 10:51:04;;;;;;;4.30;4.00;;;37.00;58.20;;;;;;5030386;28;20560;-63
2021/06/27 10:54:08;;;;;;;3.40;3.20;;;36.10;57.00;;;;;;5028763;28;20837;-63
2021/06/27 10:57:14;;;;;;;3.70;3.50;;;37.30;55.20;;;;;;5030222;28;20428;-62
2021/06/27 10:59:39;;;;;;;5.00;4.60;;;38.20;52.40;;;;;;5030279;28;20449;-62
2021/06/27 11:02:20;;;;;;;3.33;3.20;;;38.70;51.20;;;;;;5030196;28;20452;-63
2021/06/27 11:04:46;;;;;;;4.00;3.80;;;38.00;49.30;;;;;;5030184;28;20166;-63
2021/06/27 11:07:36;;;;;;;3.47;3.27;;;38.80;49.60;;;;;;5029904;28;20421;-61
2021/06/27 11:10:20;;;;;;;9.43;8.73;;;38.50;49.30;;;;;;5029676;28;20449;-62
2021/06/27 11:13:00;;;;;;;4.00;3.80;;;40.00;46.70;;;;;;5030115;28;20436;-63
2021/06/27 11:15:26;;;;;;;3.90;3.60;;;41.30;46.90;;;;;;5030000;28;20431;-63
2021/06/27 11:17:53;;;;;;;3.27;3.07;;;41.00;44.50;;;;;;5029943;28;20441;-63
2021/06/27 11:20:19;;;;;;;3.80;3.60;;;40.50;44.80;;;;;;5017866;28;20537;-63
2021/06/27 11:22:48;;;;;;;5.10;4.80;;;41.00;44.40;;;;;;5012224;28;20519;-63
2021/06/27 11:25:49;;;;;;;5.10;3.73;;;40.60;44.00;;;;;;5013359;28;20418;-63
2021/06/27 11:28:21;;;;;;;3.93;3.73;;;39.60;44.00;;;;;;5012487;28;20433;-63
2021/06/27 11:30:51;;;;;;;6.40;6.00;;;40.70;43.10;;;;;;5011866;28;21005;-63
2021/06/27 11:33:25;;;;;;;2.80;2.70;;;42.20;41.40;;;;;;5013571;28;20883;-63
2021/06/27 11:35:51;;;;;;;3.27;2.97;;;41.30;41.60;;;;;;5013176;28;20418;-62
2021/06/27 11:38:40;;;;;;;3.33;3.13;;;42.30;40.60;;;;;;5012909;28;20433;-63
2021/06/27 11:41:11;;;;;;;3.20;3.10;;;43.80;40.50;;;;;;5011841;28;21000;-63
2021/06/27 11:43:55;;;;;;;3.53;3.43;;;43.30;39.10;;;;;;5020654;28;20439;-61
2021/06/27 11:46:37;;;;;;;4.10;3.90;;;42.20;39.60;;;;;;5032759;28;20413;-64
2021/06/27 11:49:08;;;;;;;4.70;4.50;;;42.30;39.80;;;;;;5032288;28;20985;-63
2021/06/27 11:51:37;;;;;;;3.73;3.53;;;43.00;39.30;;;;;;5032867;28;20510;-64
2021/06/27 11:54:04;;;;;;;4.10;3.90;;;42.90;38.50;;;;;;5032563;28;20413;-63
2021/06/27 11:57:06;;;;;;;3.13;3.03;;;44.50;37.50;;;;;;5032537;28;20413;-63
2021/06/27 11:59:36;;;;;;;3.37;3.17;;;44.30;37.20;;;;;;5032307;28;20443;-64
2021/06/27 12:02:10;;;;;;;3.40;3.20;;;44.50;36.70;;;;;;5032618;28;20492;-63
2021/06/27 12:04:51;;;;;;;3.77;3.57;;;42.80;37.10;;;;;;5032226;28;20433;-63
2021/06/27 12:07:36;;;;;;;3.57;3.27;;;41.00;39.40;;;;;;5032301;28;20937;-62
2021/06/27 12:10:17;;;;;;;3.50;3.30;;;40.90;39.10;;;;;;5032102;28;20453;-63
2021/06/27 12:12:49;;;;;;;4.57;4.27;;;40.60;38.90;;;;;;5032199;28;20416;-63
2021/06/27 12:15:15;;;;;;;6.27;5.87;;;39.70;39.30;;;;;;5032325;28;20417;-63
2021/06/27 12:17:42;;;;;;;3.67;3.47;;;41.50;38.60;;;;;;5032095;28;20528;-62
2021/06/27 12:20:08;;;;;;;4.53;4.10;;;41.00;38.30;;;;;;5031812;28;20178;-63
2021/06/27 12:22:50;;;;;;;4.53;3.20;;;41.60;38.20;;;;;;5031985;28;20417;-64
2021/06/27 12:25:16;;;;;;;3.60;3.30;;;42.30;38.00;;;;;;5032020;28;20460;-63
2021/06/27 12:27:49;;;;;;;3.63;3.47;;;41.90;38.50;;;;;;5032089;28;20476;-63
2021/06/27 12:30:15;;;;;;;3.57;3.37;;;41.10;38.70;;;;;;5030443;28;20285;-63
2021/06/27 12:33:03;;;;;;;3.83;3.63;;;41.50;38.50;;;;;;5031991;28;20742;-61
2021/06/27 12:35:31;;;;;;;3.30;3.13;;;41.50;37.70;;;;;;5031891;28;20409;-63
2021/06/27 12:37:59;;;;;;;4.97;4.77;;;41.00;38.30;;;;;;5031830;28;20855;-63
2021/06/27 12:40:25;;;;;;;7.13;6.53;;;41.30;38.00;;;;;;5031696;28;20412;-63
2021/06/27 12:42:50;;;;;;;3.27;3.10;;;42.80;37.60;;;;;;5031857;28;20455;-63